sensor_id;sensor_type;location;lat;lon;timestamp;pressure;altitude;pressure_sealevel;temperature;humidity
44131;BME280;29792;48.726;9.248;2022-08-19T00:01:41;96496.69;;;21.98;69.11
44131;BME280;29792;48.726;9.248;2022-08-19T00:04:09;96482.84;;;21.97;69.07
44131;BME280;29792;48.726;9.248;2022-08-19T00:06:37;96489.25;;;21.95;69.29
44131;BME280;29792;48.726;9.248;2022-08-19T00:09:05;96497.06;;;21.95;69.51
44131;BME280;29792;48.726;9.248;2022-08-19T00:11:31;96500.69;;;21.94;69.61
44131;BME280;29792;48.726;9.248;2022-08-19T00:13:57;96503.50;;;21.92;69.93
44131;BME280;29792;48.726;9.248;2022-08-19T00:16:23;96500.09;;;21.92;69.83
44131;BME280;29792;48.726;9.248;2022-08-19T00:18:49;96499.28;;;21.91;69.92
44131;BME280;29792;48.726;9.248;2022-08-19T00:21:15;96495.06;;;21.90;70.13
44131;BME280;29792;48.726;9.248;2022-08-19T00:23:41;96498.69;;;21.89;70.36
44131;BME280;29792;48.726;9.248;2022-08-19T00:26:08;96501.09;;;21.91;70.60
44131;BME280;29792;48.726;9.248;2022-08-19T00:28:33;96495.31;;;21.89;70.24
44131;BME280;29792;48.726;9.248;2022-08-19T00:31:02;96497.09;;;21.88;70.68
44131;BME280;29792;48.726;9.248;2022-08-19T00:33:28;96485.06;;;21.87;71.27
44131;BME280;29792;48.726;9.248;2022-08-19T00:35:55;96475.84;;;21.85;70.82
44131;BME280;29792;48.726;9.248;2022-08-19T00:38:20;96472.06;;;21.81;71.00
44131;BME280;29792;48.726;9.248;2022-08-19T00:40:47;96466.44;;;21.77;71.01
44131;BME280;29792;48.726;9.248;2022-08-19T00:43:18;96472.06;;;21.74;71.11
44131;BME280;29792;48.726;9.248;2022-08-19T00:45:44;96479.31;;;21.72;71.53
44131;BME280;29792;48.726;9.248;2022-08-19T00:48:10;96472.50;;;21.71;71.50
44131;BME280;29792;48.726;9.248;2022-08-19T00:50:35;96477.69;;;21.71;71.85
44131;BME280;29792;48.726;9.248;2022-08-19T00:53:02;96486.94;;;21.67;71.80
44131;BME280;29792;48.726;9.248;2022-08-19T00:55:30;96490.53;;;21.66;71.83
44131;BME280;29792;48.726;9.248;2022-08-19T00:58:00;96490.97;;;21.63;72.37
44131;BME280;29792;48.726;9.248;2022-08-19T01:00:27;96490.38;;;21.61;72.10
44131;BME280;29792;48.726;9.248;2022-08-19T01:02:54;96489.75;;;21.59;72.47
44131;BME280;29792;48.726;9.248;2022-08-19T01:05:26;96491.00;;;21.56;73.07
44131;BME280;29792;48.726;9.248;2022-08-19T01:07:53;96491.00;;;21.56;73.36
44131;BME280;29792;48.726;9.248;2022-08-19T01:10:22;96488.59;;;21.55;73.14
44131;BME280;29792;48.726;9.248;2022-08-19T01:12:49;96491.19;;;21.55;73.55
44131;BME280;29792;48.726;9.248;2022-08-19T01:15:17;96478.34;;;21.53;73.32
44131;BME280;29792;48.726;9.248;2022-08-19T01:17:44;96483.75;;;21.52;73.26
44131;BME280;29792;48.726;9.248;2022-08-19T01:20:16;96479.75;;;21.49;73.55
44131;BME280;29792;48.726;9.248;2022-08-19T01:22:47;96474.16;;;21.46;73.22
44131;BME280;29792;48.726;9.248;2022-08-19T01:25:18;96474.16;;;21.46;73.16
44131;BME280;29792;48.726;9.248;2022-08-19T01:27:46;96476.97;;;21.44;73.51
44131;BME280;29792;48.726;9.248;2022-08-19T01:30:16;96468.34;;;21.44;73.73
44131;BME280;29792;48.726;9.248;2022-08-19T01:32:42;96468.34;;;21.44;73.43
44131;BME280;29792;48.726;9.248;2022-08-19T01:35:09;96469.34;;;21.43;73.54
44131;BME280;29792;48.726;9.248;2022-08-19T01:37:45;96467.75;;;21.42;73.25
44131;BME280;29792;48.726;9.248;2022-08-19T01:40:11;96466.13;;;21.41;73.29
44131;BME280;29792;48.726;9.248;2022-08-19T01:42:36;96471.78;;;21.38;73.35
44131;BME280;29792;48.726;9.248;2022-08-19T01:45:03;96468.56;;;21.36;73.30
44131;BME280;29792;48.726;9.248;2022-08-19T01:47:28;96470.16;;;21.37;73.43
44131;BME280;29792;48.726;9.248;2022-08-19T01:49:54;96470.38;;;21.35;73.30
44131;BME280;29792;48.726;9.248;2022-08-19T01:52:19;96462.75;;;21.33;73.19
44131;BME280;29792;48.726;9.248;2022-08-19T01:54:44;96468.94;;;21.32;73.23
44131;BME280;29792;48.726;9.248;2022-08-19T01:57:12;96470.00;;;21.31;73.07
44131;BME280;29792;48.726;9.248;2022-08-19T01:59:39;96470.19;;;21.30;72.93
44131;BME280;29792;48.726;9.248;2022-08-19T02:02:05;96469.38;;;21.29;73.19
44131;BME280;29792;48.726;9.248;2022-08-19T02:04:33;96467.38;;;21.31;73.26
44131;BME280;29792;48.726;9.248;2022-08-19T02:06:59;96468.56;;;21.29;73.09
44131;BME280;29792;48.726;9.248;2022-08-19T02:09:24;96464.16;;;21.29;73.10
44131;BME280;29792;48.726;9.248;2022-08-19T02:11:49;96464.56;;;21.26;73.41
44131;BME280;29792;48.726;9.248;2022-08-19T02:14:15;96461.97;;;21.26;72.91
44131;BME280;29792;48.726;9.248;2022-08-19T02:16:40;96465.56;;;21.25;73.29
44131;BME280;29792;48.726;9.248;2022-08-19T02:19:06;96465.38;;;21.27;73.14
44131;BME280;29792;48.726;9.248;2022-08-19T02:21:32;96473.97;;;21.27;73.15
44131;BME280;29792;48.726;9.248;2022-08-19T02:23:58;96470.78;;;21.25;73.08
44131;BME280;29792;48.726;9.248;2022-08-19T02:26:24;96469.16;;;21.24;73.45
44131;BME280;29792;48.726;9.248;2022-08-19T02:28:51;96478.00;;;21.23;73.63
44131;BME280;29792;48.726;9.248;2022-08-19T02:31:19;96485.03;;;21.23;73.61
44131;BME280;29792;48.726;9.248;2022-08-19T02:33:46;96476.81;;;21.19;73.39
44131;BME280;29792;48.726;9.248;2022-08-19T02:36:12;96474.41;;;21.18;73.92
44131;BME280;29792;48.726;9.248;2022-08-19T02:38:39;96462.97;;;21.19;73.73
44131;BME280;29792;48.726;9.248;2022-08-19T02:41:07;96461.38;;;21.18;73.79
44131;BME280;29792;48.726;9.248;2022-08-19T02:43:35;96457.97;;;21.17;74.29
44131;BME280;29792;48.726;9.248;2022-08-19T02:46:17;96453.94;;;21.15;74.47
44131;BME280;29792;48.726;9.248;2022-08-19T02:48:49;96458.56;;;21.13;74.11
44131;BME280;29792;48.726;9.248;2022-08-19T02:51:20;96452.72;;;21.11;74.58
44131;BME280;29792;48.726;9.248;2022-08-19T02:53:45;96455.53;;;21.09;74.86
44131;BME280;29792;48.726;9.248;2022-08-19T02:56:11;96453.34;;;21.06;75.05
44131;BME280;29792;48.726;9.248;2022-08-19T02:58:36;96452.75;;;21.04;74.85
44131;BME280;29792;48.726;9.248;2022-08-19T03:01:01;96447.94;;;21.01;75.18
44131;BME280;29792;48.726;9.248;2022-08-19T03:03:27;96450.94;;;20.98;75.40
44131;BME280;29792;48.726;9.248;2022-08-19T03:06:03;96452.34;;;20.94;76.04
44131;BME280;29792;48.726;9.248;2022-08-19T03:08:29;96454.34;;;20.92;75.78
44131;BME280;29792;48.726;9.248;2022-08-19T03:10:55;96464.19;;;20.90;75.65
44131;BME280;29792;48.726;9.248;2022-08-19T03:13:21;96462.78;;;20.87;75.85
44131;BME280;29792;48.726;9.248;2022-08-19T03:15:48;96468.97;;;20.86;76.24
44131;BME280;29792;48.726;9.248;2022-08-19T03:18:15;96474.97;;;20.87;76.08
44131;BME280;29792;48.726;9.248;2022-08-19T03:20:44;96473.56;;;20.84;76.27
44131;BME280;29792;48.726;9.248;2022-08-19T03:23:11;96482.41;;;20.83;76.28
44131;BME280;29792;48.726;9.248;2022-08-19T03:25:46;96482.81;;;20.80;76.50
44131;BME280;29792;48.726;9.248;2022-08-19T03:28:13;96476.97;;;20.78;75.88
44131;BME280;29792;48.726;9.248;2022-08-19T03:30:41;96481.59;;;20.76;76.88
44131;BME280;29792;48.726;9.248;2022-08-19T03:33:08;96467.97;;;20.74;76.68
44131;BME280;29792;48.726;9.248;2022-08-19T03:35:34;96471.59;;;20.73;76.79
44131;BME280;29792;48.726;9.248;2022-08-19T03:38:02;96467.75;;;20.69;77.04
44131;BME280;29792;48.726;9.248;2022-08-19T03:40:28;96476.56;;;20.68;77.41
44131;BME280;29792;48.726;9.248;2022-08-19T03:42:55;96475.00;;;20.67;77.35
44131;BME280;29792;48.726;9.248;2022-08-19T03:45:20;96470.97;;;20.65;77.35
44131;BME280;29792;48.726;9.248;2022-08-19T03:47:45;96469.56;;;20.62;77.11
44131;BME280;29792;48.726;9.248;2022-08-19T03:50:10;96468.94;;;20.60;77.25
44131;BME280;29792;48.726;9.248;2022-08-19T03:52:36;96469.19;;;20.59;77.49
44131;BME280;29792;48.726;9.248;2022-08-19T03:55:02;96482.38;;;20.57;77.67
44131;BME280;29792;48.726;9.248;2022-08-19T03:57:27;96476.38;;;20.56;77.68
44131;BME280;29792;48.726;9.248;2022-08-19T03:59:53;96473.16;;;20.54;77.62
44131;BME280;29792;48.726;9.248;2022-08-19T04:02:18;96476.16;;;20.51;77.80
44131;BME280;29792;48.726;9.248;2022-08-19T04:04:44;96479.78;;;20.50;78.05
44131;BME280;29792;48.726;9.248;2022-08-19T04:07:10;96476.38;;;20.50;78.01
44131;BME280;29792;48.726;9.248;2022-08-19T04:09:36;96482.75;;;20.47;78.43
44131;BME280;29792;48.726;9.248;2022-08-19T04:12:02;96479.53;;;20.45;78.47
44131;BME280;29792;48.726;9.248;2022-08-19T04:14:30;96479.53;;;20.45;78.53
44131;BME280;29792;48.726;9.248;2022-08-19T04:16:56;96477.94;;;20.44;78.51
44131;BME280;29792;48.726;9.248;2022-08-19T04:19:21;96475.34;;;20.44;78.48
44131;BME280;29792;48.726;9.248;2022-08-19T04:21:51;96472.97;;;20.43;78.66
44131;BME280;29792;48.726;9.248;2022-08-19T04:24:17;96470.53;;;20.41;78.56
44131;BME280;29792;48.726;9.248;2022-08-19T04:26:43;96473.34;;;20.40;78.83
44131;BME280;29792;48.726;9.248;2022-08-19T04:29:12;96476.75;;;20.40;78.82
44131;BME280;29792;48.726;9.248;2022-08-19T04:31:38;96471.72;;;20.39;78.73
44131;BME280;29792;48.726;9.248;2022-08-19T04:34:07;96468.31;;;20.38;78.87
44131;BME280;29792;48.726;9.248;2022-08-19T04:36:35;96467.72;;;20.36;78.93
44131;BME280;29792;48.726;9.248;2022-08-19T04:39:07;96460.13;;;20.35;78.64
44131;BME280;29792;48.726;9.248;2022-08-19T04:41:33;96463.88;;;20.32;78.67
44131;BME280;29792;48.726;9.248;2022-08-19T04:44:18;96468.47;;;20.30;79.03
44131;BME280;29792;48.726;9.248;2022-08-19T04:46:44;96462.47;;;20.30;79.11
44131;BME280;29792;48.726;9.248;2022-08-19T04:49:10;96466.88;;;20.29;79.24
44131;BME280;29792;48.726;9.248;2022-08-19T04:51:36;96465.25;;;20.28;79.35
44131;BME280;29792;48.726;9.248;2022-08-19T04:54:02;96460.88;;;20.29;79.90
44131;BME280;29792;48.726;9.248;2022-08-19T04:56:28;96467.69;;;20.30;80.33
44131;BME280;29792;48.726;9.248;2022-08-19T04:58:54;96472.50;;;20.26;80.62
44131;BME280;29792;48.726;9.248;2022-08-19T05:01:27;96469.47;;;20.23;80.69
44131;BME280;29792;48.726;9.248;2022-08-19T05:03:53;96477.66;;;20.19;80.42
44131;BME280;29792;48.726;9.248;2022-08-19T05:06:20;96474.47;;;20.17;80.86
44131;BME280;29792;48.726;9.248;2022-08-19T05:08:46;96493.06;;;20.14;80.90
44131;BME280;29792;48.726;9.248;2022-08-19T05:11:24;96490.63;;;20.13;81.14
44131;BME280;29792;48.726;9.248;2022-08-19T05:13:51;96503.66;;;20.13;81.39
44131;BME280;29792;48.726;9.248;2022-08-19T05:16:19;96507.84;;;20.14;81.15
44131;BME280;29792;48.726;9.248;2022-08-19T05:18:45;96521.66;;;20.14;81.46
44131;BME280;29792;48.726;9.248;2022-08-19T05:21:29;96536.28;;;20.15;81.16
44131;BME280;29792;48.726;9.248;2022-08-19T05:24:14;96541.66;;;20.14;81.36
44131;BME280;29792;48.726;9.248;2022-08-19T05:26:43;96548.66;;;20.13;81.72
44131;BME280;29792;48.726;9.248;2022-08-19T05:29:11;96550.47;;;20.13;81.87
44131;BME280;29792;48.726;9.248;2022-08-19T05:31:37;96553.88;;;20.13;81.87
44131;BME280;29792;48.726;9.248;2022-08-19T05:34:04;96555.66;;;20.13;81.63
44131;BME280;29792;48.726;9.248;2022-08-19T05:36:37;96570.28;;;20.14;81.79
44131;BME280;29792;48.726;9.248;2022-08-19T05:39:07;96572.88;;;20.14;81.92
44131;BME280;29792;48.726;9.248;2022-08-19T05:41:34;96577.09;;;20.15;82.12
44131;BME280;29792;48.726;9.248;2022-08-19T05:44:04;96567.50;;;20.15;81.93
44131;BME280;29792;48.726;9.248;2022-08-19T05:46:31;96569.28;;;20.15;81.78
44131;BME280;29792;48.726;9.248;2022-08-19T05:48:57;96567.69;;;20.14;81.69
44131;BME280;29792;48.726;9.248;2022-08-19T05:51:23;96565.06;;;20.14;81.92
44131;BME280;29792;48.726;9.248;2022-08-19T05:53:49;96561.47;;;20.15;81.95
44131;BME280;29792;48.726;9.248;2022-08-19T05:56:15;96569.28;;;20.15;81.88
44131;BME280;29792;48.726;9.248;2022-08-19T05:58:43;96565.50;;;20.17;82.25
44131;BME280;29792;48.726;9.248;2022-08-19T06:01:13;96562.91;;;20.17;81.50
44131;BME280;29792;48.726;9.248;2022-08-19T06:03:38;96565.28;;;20.19;82.05
44131;BME280;29792;48.726;9.248;2022-08-19T06:06:05;96566.88;;;20.20;81.87
44131;BME280;29792;48.726;9.248;2022-08-19T06:08:31;96571.91;;;20.22;82.22
44131;BME280;29792;48.726;9.248;2022-08-19T06:10:56;96575.31;;;20.22;81.96
44131;BME280;29792;48.726;9.248;2022-08-19T06:13:22;96574.94;;;20.25;82.33
44131;BME280;29792;48.726;9.248;2022-08-19T06:15:49;96571.34;;;20.26;82.53
44131;BME280;29792;48.726;9.248;2022-08-19T06:18:15;96575.53;;;20.27;83.09
44131;BME280;29792;48.726;9.248;2022-08-19T06:20:41;96566.94;;;20.27;82.72
44131;BME280;29792;48.726;9.248;2022-08-19T06:23:06;96573.13;;;20.26;83.53
44131;BME280;29792;48.726;9.248;2022-08-19T06:25:32;96573.50;;;20.23;84.01
44131;BME280;29792;48.726;9.248;2022-08-19T06:27:57;96574.50;;;20.22;83.92
44131;BME280;29792;48.726;9.248;2022-08-19T06:30:22;96575.50;;;20.20;84.29
44131;BME280;29792;48.726;9.248;2022-08-19T06:32:48;96580.69;;;20.20;84.59
44131;BME280;29792;48.726;9.248;2022-08-19T06:35:13;96576.50;;;20.19;84.84
44131;BME280;29792;48.726;9.248;2022-08-19T06:37:39;96584.69;;;20.16;85.13
44131;BME280;29792;48.726;9.248;2022-08-19T06:40:05;96581.47;;;20.14;84.60
44131;BME280;29792;48.726;9.248;2022-08-19T06:42:31;96573.88;;;20.13;85.44
44131;BME280;29792;48.726;9.248;2022-08-19T06:44:56;96578.25;;;20.12;85.56
44131;BME280;29792;48.726;9.248;2022-08-19T06:47:22;96574.84;;;20.12;85.62
44131;BME280;29792;48.726;9.248;2022-08-19T06:49:48;96581.66;;;20.13;86.42
44131;BME280;29792;48.726;9.248;2022-08-19T06:52:14;96581.06;;;20.11;86.11
44131;BME280;29792;48.726;9.248;2022-08-19T06:54:41;96579.25;;;20.11;86.71
44131;BME280;29792;48.726;9.248;2022-08-19T06:57:09;96582.28;;;20.15;86.57
44131;BME280;29792;48.726;9.248;2022-08-19T06:59:39;96577.69;;;20.17;87.02
44131;BME280;29792;48.726;9.248;2022-08-19T07:02:06;96585.09;;;20.20;87.07
44131;BME280;29792;48.726;9.248;2022-08-19T07:04:33;96586.72;;;20.21;86.74
44131;BME280;29792;48.726;9.248;2022-08-19T07:07:01;96591.09;;;20.20;86.98
44131;BME280;29792;48.726;9.248;2022-08-19T07:09:27;96596.94;;;20.23;86.92
44131;BME280;29792;48.726;9.248;2022-08-19T07:11:53;96594.13;;;20.24;86.65
44131;BME280;29792;48.726;9.248;2022-08-19T07:14:22;96595.94;;;20.24;86.63
44131;BME280;29792;48.726;9.248;2022-08-19T07:16:51;96594.13;;;20.24;86.75
44131;BME280;29792;48.726;9.248;2022-08-19T07:19:18;96595.75;;;20.25;86.71
44131;BME280;29792;48.726;9.248;2022-08-19T07:21:43;96592.16;;;20.26;86.73
44131;BME280;29792;48.726;9.248;2022-08-19T07:24:09;96591.34;;;20.26;86.37
44131;BME280;29792;48.726;9.248;2022-08-19T07:26:40;96582.56;;;20.27;86.25
44131;BME280;29792;48.726;9.248;2022-08-19T07:29:06;96595.56;;;20.27;86.25
44131;BME280;29792;48.726;9.248;2022-08-19T07:31:32;96589.56;;;20.26;86.95
44131;BME280;29792;48.726;9.248;2022-08-19T07:34:03;96594.75;;;20.26;87.62
44131;BME280;29792;48.726;9.248;2022-08-19T07:36:32;96594.94;;;20.25;88.02
44131;BME280;29792;48.726;9.248;2022-08-19T07:39:00;96596.50;;;20.19;88.11
44131;BME280;29792;48.726;9.248;2022-08-19T07:41:28;96599.31;;;20.17;88.53
44131;BME280;29792;48.726;9.248;2022-08-19T07:43:57;96598.09;;;20.13;88.75
44131;BME280;29792;48.726;9.248;2022-08-19T07:46:22;96598.47;;;20.10;89.39
44131;BME280;29792;48.726;9.248;2022-08-19T07:48:49;96601.28;;;20.09;89.79
44131;BME280;29792;48.726;9.248;2022-08-19T07:51:17;96601.66;;;20.06;89.97
44131;BME280;29792;48.726;9.248;2022-08-19T07:53:43;96596.22;;;20.01;90.13
44131;BME280;29792;48.726;9.248;2022-08-19T07:56:12;96602.16;;;19.95;90.08
44131;BME280;29792;48.726;9.248;2022-08-19T07:58:40;96599.16;;;19.91;90.72
44131;BME280;29792;48.726;9.248;2022-08-19T08:01:07;96602.31;;;19.87;90.82
44131;BME280;29792;48.726;9.248;2022-08-19T08:03:35;96597.72;;;19.82;91.16
44131;BME280;29792;48.726;9.248;2022-08-19T08:06:19;96604.47;;;19.76;91.43
44131;BME280;29792;48.726;9.248;2022-08-19T08:09:04;96609.44;;;19.71;91.19
44131;BME280;29792;48.726;9.248;2022-08-19T08:11:39;96609.03;;;19.68;91.80
44131;BME280;29792;48.726;9.248;2022-08-19T08:14:06;96616.56;;;19.63;91.90
44131;BME280;29792;48.726;9.248;2022-08-19T08:16:38;96620.19;;;19.62;92.54
44131;BME280;29792;48.726;9.248;2022-08-19T08:19:05;96615.16;;;19.60;93.11
44131;BME280;29792;48.726;9.248;2022-08-19T08:21:31;96613.97;;;19.63;93.85
44131;BME280;29792;48.726;9.248;2022-08-19T08:23:56;96605.00;;;19.65;94.53
44131;BME280;29792;48.726;9.248;2022-08-19T08:26:22;96617.81;;;19.67;94.81
44131;BME280;29792;48.726;9.248;2022-08-19T08:28:47;96609.81;;;19.68;95.36
44131;BME280;29792;48.726;9.248;2022-08-19T08:31:13;96608.03;;;19.69;95.45
44131;BME280;29792;48.726;9.248;2022-08-19T08:33:39;96616.63;;;19.69;95.15
44131;BME280;29792;48.726;9.248;2022-08-19T08:36:08;96610.63;;;19.69;95.54
44131;BME280;29792;48.726;9.248;2022-08-19T08:38:33;96608.22;;;19.67;95.53
44131;BME280;29792;48.726;9.248;2022-08-19T08:41:11;96604.81;;;19.67;95.48
44131;BME280;29792;48.726;9.248;2022-08-19T08:43:40;96608.41;;;19.66;95.42
44131;BME280;29792;48.726;9.248;2022-08-19T08:46:14;96597.19;;;19.65;96.04
44131;BME280;29792;48.726;9.248;2022-08-19T08:48:49;96604.81;;;19.67;96.25
44131;BME280;29792;48.726;9.248;2022-08-19T08:51:32;96603.19;;;19.66;96.09
44131;BME280;29792;48.726;9.248;2022-08-19T08:53:59;96600.41;;;19.67;96.13
44131;BME280;29792;48.726;9.248;2022-08-19T08:56:24;96607.03;;;19.70;96.36
44131;BME280;29792;48.726;9.248;2022-08-19T09:01:18;96614.25;;;19.74;96.84
44131;BME280;29792;48.726;9.248;2022-08-19T09:03:44;96623.66;;;19.75;96.83
44131;BME280;29792;48.726;9.248;2022-08-19T09:09:08;96616.72;;;19.83;97.69
44131;BME280;29792;48.726;9.248;2022-08-19T09:14:15;96616.94;;;19.88;96.64
44131;BME280;29792;48.726;9.248;2022-08-19T09:16:44;96631.34;;;19.90;97.00
44131;BME280;29792;48.726;9.248;2022-08-19T09:19:10;96628.38;;;19.93;97.41
44131;BME280;29792;48.726;9.248;2022-08-19T09:21:35;96626.38;;;19.95;97.51
44131;BME280;29792;48.726;9.248;2022-08-19T09:24:02;96630.59;;;19.96;96.87
44131;BME280;29792;48.726;9.248;2022-08-19T09:26:28;96621.41;;;19.94;96.82
44131;BME280;29792;48.726;9.248;2022-08-19T09:28:54;96628.97;;;19.95;96.32
44131;BME280;29792;48.726;9.248;2022-08-19T09:31:25;96628.78;;;19.97;96.66
44131;BME280;29792;48.726;9.248;2022-08-19T09:33:52;96630.00;;;19.94;95.97
44131;BME280;29792;48.726;9.248;2022-08-19T09:36:19;96631.97;;;19.92;95.94
44131;BME280;29792;48.726;9.248;2022-08-19T09:38:47;96622.56;;;19.91;96.02
44131;BME280;29792;48.726;9.248;2022-08-19T09:41:15;96631.16;;;19.92;95.79
44131;BME280;29792;48.726;9.248;2022-08-19T09:43:43;96631.16;;;19.92;95.78
44131;BME280;29792;48.726;9.248;2022-08-19T09:46:09;96637.97;;;19.93;95.81
44131;BME280;29792;48.726;9.248;2022-08-19T09:48:36;96634.41;;;19.94;95.87
44131;BME280;29792;48.726;9.248;2022-08-19T09:51:06;96639.38;;;19.95;96.12
44131;BME280;29792;48.726;9.248;2022-08-19T09:53:33;96646.81;;;19.98;95.64
44131;BME280;29792;48.726;9.248;2022-08-19T09:55:58;96646.81;;;19.98;95.80
44131;BME280;29792;48.726;9.248;2022-08-19T09:58:24;96643.03;;;20.01;95.74
44131;BME280;29792;48.726;9.248;2022-08-19T10:00:57;96647.03;;;20.03;95.72
44131;BME280;29792;48.726;9.248;2022-08-19T10:03:24;96642.44;;;20.05;96.28
44131;BME280;29792;48.726;9.248;2022-08-19T10:05:49;96643.25;;;20.06;95.52
44131;BME280;29792;48.726;9.248;2022-08-19T10:08:20;96642.88;;;20.09;96.21
44131;BME280;29792;48.726;9.248;2022-08-19T10:10:47;96644.50;;;20.10;95.99
44131;BME280;29792;48.726;9.248;2022-08-19T10:13:14;96647.69;;;20.12;96.17
44131;BME280;29792;48.726;9.248;2022-08-19T10:15:43;96641.31;;;20.14;96.47
44131;BME280;29792;48.726;9.248;2022-08-19T10:18:09;96643.53;;;20.17;96.70
44131;BME280;29792;48.726;9.248;2022-08-19T10:20:36;96652.72;;;20.20;96.81
44131;BME280;29792;48.726;9.248;2022-08-19T10:23:02;96655.97;;;20.22;96.73
44131;BME280;29792;48.726;9.248;2022-08-19T10:25:28;96648.16;;;20.22;97.03
44131;BME280;29792;48.726;9.248;2022-08-19T10:27:53;96653.16;;;20.24;96.90
44131;BME280;29792;48.726;9.248;2022-08-19T10:30:19;96652.19;;;20.25;96.88
44131;BME280;29792;48.726;9.248;2022-08-19T10:32:44;96643.97;;;20.28;97.04
44131;BME280;29792;48.726;9.248;2022-08-19T10:35:11;96643.78;;;20.29;97.24
44131;BME280;29792;48.726;9.248;2022-08-19T10:37:37;96638.19;;;20.32;97.41
44131;BME280;29792;48.726;9.248;2022-08-19T10:40:05;96636.03;;;20.36;98.07
44131;BME280;29792;48.726;9.248;2022-08-19T10:42:31;96634.47;;;20.41;98.77
44131;BME280;29792;48.726;9.248;2022-08-19T10:44:57;96640.50;;;20.48;99.36
44131;BME280;29792;48.726;9.248;2022-08-19T10:47:22;96634.72;;;20.53;99.56
44131;BME280;29792;48.726;9.248;2022-08-19T10:49:52;96637.56;;;20.58;99.64
44131;BME280;29792;48.726;9.248;2022-08-19T10:52:37;96632.38;;;20.65;100.00
44131;BME280;29792;48.726;9.248;2022-08-19T10:55:06;96632.38;;;20.71;100.00
44131;BME280;29792;48.726;9.248;2022-08-19T10:57:49;96630.78;;;20.77;100.00
44131;BME280;29792;48.726;9.248;2022-08-19T11:00:15;96626.38;;;20.77;100.00
44131;BME280;29792;48.726;9.248;2022-08-19T11:02:41;96632.41;;;20.78;100.00
44131;BME280;29792;48.726;9.248;2022-08-19T11:05:07;96633.19;;;20.78;100.00
44131;BME280;29792;48.726;9.248;2022-08-19T11:07:35;96630.41;;;20.80;100.00
44131;BME280;29792;48.726;9.248;2022-08-19T11:10:02;96629.22;;;20.82;100.00
44131;BME280;29792;48.726;9.248;2022-08-19T11:12:28;96631.59;;;20.84;100.00
44131;BME280;29792;48.726;9.248;2022-08-19T11:14:53;96628.00;;;20.85;100.00
44131;BME280;29792;48.726;9.248;2022-08-19T11:17:19;96633.22;;;20.85;100.00
44131;BME280;29792;48.726;9.248;2022-08-19T11:19:45;96628.81;;;20.85;100.00
44131;BME280;29792;48.726;9.248;2022-08-19T11:22:11;96635.00;;;20.84;100.00
44131;BME280;29792;48.726;9.248;2022-08-19T11:24:37;96636.03;;;20.83;100.00
44131;BME280;29792;48.726;9.248;2022-08-19T11:27:06;96636.41;;;20.80;99.55
44131;BME280;29792;48.726;9.248;2022-08-19T11:29:32;96641.63;;;20.80;99.74
44131;BME280;29792;48.726;9.248;2022-08-19T11:32:00;96641.81;;;20.79;99.60
44131;BME280;29792;48.726;9.248;2022-08-19T11:34:28;96645.59;;;20.76;99.67
44131;BME280;29792;48.726;9.248;2022-08-19T11:36:55;96636.41;;;20.74;99.40
44131;BME280;29792;48.726;9.248;2022-08-19T11:39:25;96636.59;;;20.72;99.60
44131;BME280;29792;48.726;9.248;2022-08-19T11:41:50;96642.19;;;20.69;99.77
44131;BME280;29792;48.726;9.248;2022-08-19T11:44:15;96635.59;;;20.67;99.63
44131;BME280;29792;48.726;9.248;2022-08-19T11:46:42;96635.59;;;20.67;100.00
44131;BME280;29792;48.726;9.248;2022-08-19T11:49:12;96635.16;;;20.63;100.00
44131;BME280;29792;48.726;9.248;2022-08-19T11:51:38;96631.94;;;20.61;100.00
44131;BME280;29792;48.726;9.248;2022-08-19T11:54:05;96629.34;;;20.61;100.00
44131;BME280;29792;48.726;9.248;2022-08-19T11:56:30;96628.94;;;20.58;100.00
44131;BME280;29792;48.726;9.248;2022-08-19T11:58:57;96629.13;;;20.56;100.00
44131;BME280;29792;48.726;9.248;2022-08-19T12:01:24;96628.31;;;20.55;100.00
44131;BME280;29792;48.726;9.248;2022-08-19T12:03:51;96628.13;;;20.50;100.00
44131;BME280;29792;48.726;9.248;2022-08-19T12:06:20;96635.13;;;20.50;100.00
44131;BME280;29792;48.726;9.248;2022-08-19T12:08:51;96634.13;;;20.51;100.00
44131;BME280;29792;48.726;9.248;2022-08-19T12:11:16;96639.91;;;20.53;100.00
44131;BME280;29792;48.726;9.248;2022-08-19T12:13:42;96638.31;;;20.52;100.00
44131;BME280;29792;48.726;9.248;2022-08-19T12:16:17;96640.72;;;20.53;100.00
44131;BME280;29792;48.726;9.248;2022-08-19T12:18:43;96641.53;;;20.54;100.00
44131;BME280;29792;48.726;9.248;2022-08-19T12:21:21;96639.91;;;20.53;100.00
44131;BME280;29792;48.726;9.248;2022-08-19T12:23:49;96638.13;;;20.53;100.00
44131;BME280;29792;48.726;9.248;2022-08-19T12:26:15;96633.09;;;20.52;100.00
44131;BME280;29792;48.726;9.248;2022-08-19T12:28:41;96640.72;;;20.53;100.00
44131;BME280;29792;48.726;9.248;2022-08-19T12:31:07;96640.72;;;20.53;100.00
44131;BME280;29792;48.726;9.248;2022-08-19T12:33:32;96634.91;;;20.51;100.00
44131;BME280;29792;48.726;9.248;2022-08-19T12:36:04;96635.31;;;20.48;100.00
44131;BME280;29792;48.726;9.248;2022-08-19T12:38:30;96641.13;;;20.50;100.00
44131;BME280;29792;48.726;9.248;2022-08-19T12:40:57;96644.28;;;20.46;100.00
44131;BME280;29792;48.726;9.248;2022-08-19T12:43:22;96645.91;;;20.47;100.00
44131;BME280;29792;48.726;9.248;2022-08-19T12:45:49;96635.31;;;20.48;100.00
44131;BME280;29792;48.726;9.248;2022-08-19T12:48:14;96637.91;;;20.48;100.00
44131;BME280;29792;48.726;9.248;2022-08-19T12:50:40;96640.31;;;20.50;100.00
44131;BME280;29792;48.726;9.248;2022-08-19T12:53:06;96645.53;;;20.50;100.00
44131;BME280;29792;48.726;9.248;2022-08-19T12:55:31;96640.69;;;20.47;100.00
44131;BME280;29792;48.726;9.248;2022-08-19T12:57:56;96644.09;;;20.47;100.00
44131;BME280;29792;48.726;9.248;2022-08-19T13:00:22;96643.50;;;20.45;100.00
44131;BME280;29792;48.726;9.248;2022-08-19T13:02:50;96648.47;;;20.40;100.00
44131;BME280;29792;48.726;9.248;2022-08-19T13:05:21;96642.47;;;20.40;100.00
44131;BME280;29792;48.726;9.248;2022-08-19T13:07:48;96646.25;;;20.37;100.00